Time;durP1;ratioP1;P1;durP2;ratioP2;P2;SDS_P1;SDS_P2;PMS_P1;PMS_P2;Temp;Humidity;BMP_temperature;BMP_pressure;BME280_temperature;BME280_humidity;BME280_pressure;Samples;Min_cycle;Max_cycle;Signal;HPM_P1;HPM_P2
2022/08/26 00:00:46;;;;;;;14.80;9.23;;;;;;;22.80;60.85;98667.91;5051814;28;20028;-78
2022/08/26 00:03:16;;;;;;;19.45;10.98;;;;;;;22.72;64.54;98665.28;5059372;28;20100;-78
2022/08/26 00:05:42;;;;;;;13.77;10.38;;;;;;;22.76;61.58;98674.38;5052734;28;20033;-78
2022/08/26 00:08:10;;;;;;;23.65;12.00;;;;;;;22.65;65.57;98670.47;5060928;28;20063;-78
2022/08/26 00:10:36;;;;;;;15.18;9.02;;;;;;;22.83;61.27;98672.72;5056488;28;21838;-78
2022/08/26 00:13:02;;;;;;;14.85;10.05;;;;;;;22.82;60.71;98651.28;5060660;28;20037;-78
2022/08/26 00:15:28;;;;;;;15.25;9.18;;;;;;;22.97;60.45;98654.19;5058160;28;20077;-78
2022/08/26 00:17:53;;;;;;;12.20;8.82;;;;;;;22.97;60.59;98664.28;5051056;28;20054;-78
2022/08/26 00:20:24;;;;;;;17.83;10.75;;;;;;;22.92;60.83;98672.63;5054105;28;20031;-78
2022/08/26 00:22:49;;;;;;;15.88;10.57;;;;;;;22.72;61.23;98657.09;5056606;28;20040;-78
2022/08/26 00:25:15;;;;;;;30.80;13.32;;;;;;;22.42;66.03;98666.41;5058114;28;20344;-78
2022/08/26 00:27:42;;;;;;;16.77;10.57;;;;;;;22.23;67.44;98670.38;5044616;28;20036;-78
2022/08/26 00:30:12;;;;;;;12.88;9.95;;;;;;;22.66;62.01;98669.31;5058776;28;20035;-78
2022/08/26 00:32:38;;;;;;;15.32;10.05;;;;;;;22.53;62.16;98638.50;5059118;28;20024;-78
2022/08/26 00:35:04;;;;;;;15.93;10.73;;;;;;;22.72;62.05;98668.78;5054003;28;20024;-78
2022/08/26 00:37:30;;;;;;;18.80;10.73;;;;;;;22.82;61.40;98665.69;5057758;28;20423;-78
2022/08/26 00:39:56;;;;;;;12.35;10.20;;;;;;;22.76;61.18;98647.94;5061531;28;20032;-78
2022/08/26 00:42:22;;;;;;;12.98;10.15;;;;;;;22.86;61.11;98663.88;5065136;28;20150;-78
2022/08/26 00:44:47;;;;;;;22.42;11.73;;;;;;;22.64;63.73;98660.69;5059780;28;20036;-78
2022/08/26 00:47:27;;;;;;;22.00;10.07;;;;;;;22.74;61.56;98646.69;5064514;28;20426;-78
2022/08/26 00:49:54;;;;;;;17.73;10.82;;;;;;;22.74;61.60;98665.72;5055350;28;20028;-78
2022/08/26 00:52:21;;;;;;;15.43;10.73;;;;;;;22.88;61.44;98660.81;5060330;28;20037;-78
2022/08/26 00:54:58;;;;;;;13.63;9.45;;;;;;;22.81;61.52;98653.19;5059763;28;20028;-78
2022/08/26 00:57:24;;;;;;;18.30;10.85;;;;;;;22.74;61.80;98663.00;5054009;28;20038;-78
2022/08/26 00:59:55;;;;;;;15.80;11.45;;;;;;;22.69;61.92;98644.19;5056583;28;20033;-78
2022/08/26 01:02:22;;;;;;;13.63;10.23;;;;;;;22.73;62.22;98659.50;5058728;28;20468;-78
2022/08/26 01:04:54;;;;;;;19.23;11.10;;;;;;;22.60;62.16;98643.44;5056544;28;20059;-78
2022/08/26 01:07:20;;;;;;;19.15;11.23;;;;;;;22.49;62.51;98634.84;5054204;28;20089;-78
2022/08/26 01:09:46;;;;;;;20.45;10.15;;;;;;;22.65;62.68;98662.31;5041630;28;20041;-78
2022/08/26 01:12:12;;;;;;;16.88;9.95;;;;;;;22.44;62.80;98634.25;5049075;28;20163;-78
2022/08/26 01:14:39;;;;;;;16.35;10.73;;;;;;;22.55;62.79;98649.84;5047915;28;20962;-78
2022/08/26 01:17:07;;;;;;;17.95;10.32;;;;;;;22.52;62.85;98657.88;5047623;28;20032;-78
2022/08/26 01:20:01;;;;;;;16.55;10.57;;;;;;;22.53;63.04;98648.59;5053036;28;20067;-78
2022/08/26 01:22:52;;;;;;;18.73;10.52;;;;;;;22.58;62.77;98645.69;5053389;28;20070;-78
2022/08/26 01:25:19;;;;;;;24.35;11.60;;;;;;;22.53;62.60;98648.59;5049482;28;20150;-78
2022/08/26 01:27:45;;;;;;;19.80;10.52;;;;;;;22.51;63.01;98648.13;5051774;28;20094;-78
2022/08/26 01:30:11;;;;;;;16.58;10.88;;;;;;;22.50;62.84;98647.31;5044945;28;20041;-78
2022/08/26 01:32:38;;;;;;;19.90;10.95;;;;;;;22.35;63.38;98632.38;5053248;28;20036;-78
2022/08/26 01:35:05;;;;;;;18.13;11.45;;;;;;;22.42;62.88;98641.94;5041407;28;20035;-78
2022/08/26 01:37:36;;;;;;;14.70;9.80;;;;;;;22.48;63.15;98638.69;5055493;28;20032;-78
2022/08/26 01:40:02;;;;;;;15.10;11.30;;;;;;;22.27;63.84;98627.81;5054779;28;20039;-78
2022/08/26 01:42:28;;;;;;;19.65;12.00;;;;;;;22.37;63.27;98638.28;5048380;28;20040;-78
2022/08/26 01:45:04;;;;;;;14.85;10.50;;;;;;;22.39;63.44;98641.47;5059029;28;20020;-78
2022/08/26 01:47:30;;;;;;;;;;;;;;;22.35;63.52;98639.75;5052669;28;20036;-78
2022/08/26 01:50:00;;;;;;;19.33;11.40;;;;;;;22.36;63.48;98634.00;5058176;28;20010;-78
2022/08/26 01:52:29;;;;;;;24.17;12.10;;;;;;;22.21;63.67;98629.09;5056055;28;20537;-78
2022/08/26 01:54:56;;;;;;;16.98;10.77;;;;;;;22.27;63.77;98640.59;5052710;28;20040;-78
2022/08/26 01:57:23;;;;;;;17.88;11.60;;;;;;;22.32;63.63;98646.63;5055583;28;20455;-79
2022/08/26 01:59:49;;;;;;;23.30;12.35;;;;;;;22.27;63.61;98635.16;5053367;28;20557;-78
2022/08/26 02:02:16;;;;;;;18.80;10.63;;;;;;;22.25;64.10;98632.78;5023636;28;20029;-78
2022/08/26 02:04:50;;;;;;;21.90;12.52;;;;;;;22.26;63.90;98645.25;5057005;28;20372;-78
2022/08/26 02:07:17;;;;;;;19.48;11.20;;;;;;;22.15;63.95;98627.72;5051264;28;20404;-78
2022/08/26 02:09:43;;;;;;;16.65;10.70;;;;;;;22.25;63.83;98649.09;5056163;28;20043;-78
2022/08/26 02:12:11;;;;;;;18.50;11.70;;;;;;;22.17;64.01;98643.72;5053799;28;20029;-78
2022/08/26 02:14:45;;;;;;;19.52;11.90;;;;;;;22.14;64.20;98637.00;5058861;28;20107;-78
2022/08/26 02:17:11;;;;;;;18.13;11.00;;;;;;;22.10;64.03;98627.94;5052392;28;20052;-78
2022/08/26 02:19:43;;;;;;;20.65;10.90;;;;;;;22.11;64.31;98631.41;5050225;28;20112;-78
2022/08/26 02:22:14;;;;;;;25.02;11.75;;;;;;;22.16;64.27;98648.34;5062912;28;20029;-78
2022/08/26 02:24:56;;;;;;;20.80;11.43;;;;;;;22.05;64.57;98630.81;5058899;28;20522;-78
2022/08/26 02:27:25;;;;;;;24.15;11.70;;;;;;;22.11;64.76;98645.81;5059941;28;20039;-78
2022/08/26 02:29:56;;;;;;;15.73;12.20;;;;;;;21.83;64.99;98620.22;5068154;28;20200;-78
2022/08/26 02:32:23;;;;;;;20.65;11.93;;;;;;;22.00;65.05;98641.06;5061386;28;20025;-78
2022/08/26 02:34:48;;;;;;;20.83;11.95;;;;;;;21.88;65.09;98628.19;5062345;28;20024;-78
2022/08/26 02:37:14;;;;;;;18.05;11.60;;;;;;;22.05;65.11;98635.47;5059900;28;20052;-78
2022/08/26 02:39:41;;;;;;;15.27;11.13;;;;;;;21.93;65.27;98627.22;5060584;28;20047;-78
2022/08/26 02:42:07;;;;;;;18.08;11.50;;;;;;;21.93;65.18;98629.94;5047566;28;20697;-78
2022/08/26 02:44:32;;;;;;;18.92;12.00;;;;;;;22.01;65.27;98627.16;5062553;28;20012;-78
2022/08/26 02:46:58;;;;;;;19.40;11.90;;;;;;;21.77;64.79;98626.13;5064316;28;20123;-78
2022/08/26 02:49:25;;;;;;;24.90;13.48;;;;;;;21.76;65.49;98622.63;5060253;28;20120;-78
2022/08/26 02:51:51;;;;;;;17.38;11.88;;;;;;;21.55;66.51;98640.75;5079969;28;20192;-78
2022/08/26 02:54:19;;;;;;;27.05;14.85;;;;;;;21.48;67.70;98632.31;5060984;28;20124;-78
2022/08/26 02:56:44;;;;;;;19.40;13.27;;;;;;;20.93;70.17;98607.81;5063019;28;20040;-78
2022/08/26 02:59:11;;;;;;;24.17;13.35;;;;;;;20.98;71.46;98631.28;5059899;28;20040;-78
2022/08/26 03:01:37;;;;;;;31.60;15.95;;;;;;;20.60;73.48;98634.66;5057209;28;20420;-78
2022/08/26 03:04:05;;;;;;;18.65;12.05;;;;;;;21.13;68.08;98628.91;5068891;28;20157;-78
2022/08/26 03:06:30;;;;;;;20.58;12.57;;;;;;;21.52;66.48;98628.63;5080381;28;20061;-78
2022/08/26 03:08:56;;;;;;;15.90;10.93;;;;;;;21.49;66.67;98628.50;5061288;28;20028;-78
2022/08/26 03:11:22;;;;;;;17.58;12.60;;;;;;;21.15;68.70;98613.09;5057787;28;20029;-78
2022/08/26 03:13:48;;;;;;;22.48;12.52;;;;;;;21.83;65.71;98624.84;5059575;28;20070;-78
2022/08/26 03:16:14;;;;;;;19.77;12.73;;;;;;;21.97;65.24;98611.84;5067434;28;20404;-78
2022/08/26 03:18:41;;;;;;;17.10;12.63;;;;;;;22.00;64.89;98616.59;5040541;28;20040;-78
2022/08/26 03:21:09;;;;;;;17.65;12.50;;;;;;;21.99;64.84;98613.13;5053625;28;20074;-78
2022/08/26 03:23:36;;;;;;;22.50;12.55;;;;;;;21.99;65.03;98607.69;5061659;28;20717;-78
2022/08/26 03:26:01;;;;;;;17.35;12.43;;;;;;;21.99;65.02;98623.19;5055091;28;20516;-78
2022/08/26 03:28:27;;;;;;;18.23;12.50;;;;;;;22.03;65.14;98611.31;5059424;28;20021;-78
2022/08/26 03:30:52;;;;;;;25.13;13.95;;;;;;;21.86;65.03;98603.28;5044982;28;20033;-78
2022/08/26 03:33:19;;;;;;;21.73;13.13;;;;;;;21.74;65.03;98594.97;5058780;28;20053;-78
2022/08/26 03:35:46;;;;;;;19.45;11.60;;;;;;;21.94;64.84;98609.78;5062805;28;20071;-78
2022/08/26 03:38:12;;;;;;;23.00;11.77;;;;;;;22.05;64.79;98614.50;5054826;28;20043;-78
2022/08/26 03:40:38;;;;;;;15.60;11.55;;;;;;;21.99;64.91;98610.41;5057138;28;20028;-78
2022/08/26 03:43:06;;;;;;;16.33;11.35;;;;;;;21.83;65.59;98593.03;5062369;28;20668;-78
2022/08/26 03:45:31;;;;;;;17.75;11.48;;;;;;;21.89;65.56;98609.94;5059645;28;20106;-79
2022/08/26 03:47:57;;;;;;;14.27;11.02;;;;;;;21.87;65.73;98609.47;5059177;28;20024;-78
2022/08/26 03:50:23;;;;;;;19.52;12.02;;;;;;;21.81;66.02;98608.06;5056841;28;20029;-78
2022/08/26 03:52:50;;;;;;;18.75;11.15;;;;;;;21.74;65.99;98603.13;5046987;28;20439;-78
2022/08/26 03:55:17;;;;;;;17.05;11.57;;;;;;;21.81;66.03;98613.47;5061106;28;20504;-78
2022/08/26 03:57:45;;;;;;;16.25;11.52;;;;;;;21.74;66.59;98608.56;5054044;28;20094;-78
2022/08/26 04:00:14;;;;;;;19.98;12.68;;;;;;;21.72;66.32;98613.53;5053802;28;20025;-78
2022/08/26 04:02:44;;;;;;;21.63;11.55;;;;;;;21.79;66.33;98607.59;5056562;28;20070;-78
2022/08/26 04:05:12;;;;;;;17.33;11.65;;;;;;;21.52;66.36;98597.94;5057446;28;20059;-78
2022/08/26 04:07:38;;;;;;;19.13;12.32;;;;;;;21.62;66.09;98592.16;5059286;28;20025;-78
2022/08/26 04:10:04;;;;;;;26.95;13.30;;;;;;;21.63;66.56;98597.28;5062721;28;20391;-78
2022/08/26 04:12:30;;;;;;;18.70;12.27;;;;;;;21.62;66.69;98600.31;5041088;28;20048;-78
2022/08/26 04:14:55;;;;;;;22.67;12.68;;;;;;;21.69;66.55;98610.69;5045411;28;20033;-78
2022/08/26 04:17:24;;;;;;;26.35;12.50;;;;;;;21.57;66.40;98593.16;5060475;28;20029;-78
2022/08/26 04:19:50;;;;;;;23.88;12.43;;;;;;;21.61;66.88;98602.22;5058340;28;20429;-78
2022/08/26 04:22:16;;;;;;;26.98;13.60;;;;;;;21.57;66.78;98603.22;5068526;28;20071;-78
2022/08/26 04:24:41;;;;;;;17.55;12.48;;;;;;;21.54;66.75;98596.50;5042939;28;20036;-78
2022/08/26 04:27:06;;;;;;;17.88;11.73;;;;;;;21.49;66.71;98590.47;5055604;28;20028;-79
2022/08/26 04:29:32;;;;;;;17.50;11.95;;;;;;;21.60;66.80;98603.34;5057103;28;20029;-78
2022/08/26 04:31:57;;;;;;;17.77;12.63;;;;;;;21.50;66.57;98589.34;5063026;28;20032;-78
2022/08/26 04:34:25;;;;;;;20.42;11.93;;;;;;;21.44;66.69;98591.44;5060386;28;20032;-78
2022/08/26 04:36:50;;;;;;;14.13;12.52;;;;;;;21.59;66.78;98599.03;5057298;28;20031;-78
2022/08/26 04:39:18;;;;;;;25.08;13.65;;;;;;;21.50;66.76;98581.19;5062908;28;20028;-78
2022/08/26 04:41:45;;;;;;;20.92;12.25;;;;;;;21.57;66.65;98605.94;5054914;28;20175;-78
2022/08/26 04:44:10;;;;;;;20.10;11.95;;;;;;;21.51;66.94;98608.00;5056004;28;20028;-79
2022/08/26 04:46:36;;;;;;;20.65;13.65;;;;;;;21.44;66.88;98613.16;5035859;28;20036;-78
2022/08/26 04:49:03;;;;;;;24.95;14.73;;;;;;;21.01;69.81;98600.78;5061354;28;20131;-78
2022/08/26 04:51:28;;;;;;;17.65;12.52;;;;;;;21.10;68.19;98612.47;5061098;28;20426;-78
2022/08/26 04:53:58;;;;;;;20.83;13.27;;;;;;;21.45;67.22;98620.19;5057592;28;20032;-78
2022/08/26 04:56:35;;;;;;;24.55;13.13;;;;;;;21.51;66.58;98608.00;5065479;28;20031;-78
2022/08/26 04:59:02;;;;;;;26.33;13.13;;;;;;;21.65;66.61;98622.19;5059924;28;20081;-78
2022/08/26 05:01:28;;;;;;;19.70;12.25;;;;;;;21.46;66.81;98621.78;5058759;28;20028;-78
2022/08/26 05:03:54;;;;;;;17.30;12.30;;;;;;;21.52;66.95;98614.25;5041840;28;20040;-78
2022/08/26 05:06:19;;;;;;;20.50;12.30;;;;;;;21.48;66.99;98610.59;5066056;28;20033;-78
2022/08/26 05:08:45;;;;;;;16.08;12.10;;;;;;;21.54;67.14;98631.00;5040103;28;20472;-78
2022/08/26 05:11:10;;;;;;;22.02;11.98;;;;;;;21.67;66.86;98626.50;5059440;28;20028;-78
2022/08/26 05:13:37;;;;;;;21.23;12.98;;;;;;;21.67;66.53;98630.00;5057594;28;20499;-78
2022/08/26 05:16:10;;;;;;;18.00;11.73;;;;;;;21.63;66.51;98610.03;5064529;28;20529;-78
2022/08/26 05:18:37;;;;;;;14.68;11.30;;;;;;;21.69;66.76;98622.31;5072628;28;20036;-78
2022/08/26 05:21:03;;;;;;;18.00;13.73;;;;;;;21.67;66.30;98622.66;5062574;28;20042;-78
2022/08/26 05:23:30;;;;;;;19.33;12.55;;;;;;;21.82;66.35;98617.81;5058594;28;20139;-78
2022/08/26 05:25:58;;;;;;;18.27;12.98;;;;;;;21.75;66.19;98612.88;5045937;28;20111;-78
2022/08/26 05:28:23;;;;;;;17.52;12.07;;;;;;;21.75;66.28;98622.94;5057617;28;20419;-78
2022/08/26 05:30:49;;;;;;;22.20;11.95;;;;;;;21.77;66.08;98610.63;5054567;28;20094;-78
2022/08/26 05:33:16;;;;;;;16.20;13.50;;;;;;;21.72;66.40;98605.38;5037495;28;20404;-78
2022/08/26 05:35:43;;;;;;;19.80;12.07;;;;;;;21.73;67.16;98622.47;5064615;28;20032;-78
2022/08/26 05:38:13;;;;;;;27.08;14.70;;;;;;;21.09;74.12;98611.66;5051911;28;20401;-78
2022/08/26 05:40:45;;;;;;;24.15;14.77;;;;;;;20.95;75.44;98623.78;5058870;28;20036;-78
2022/08/26 05:43:12;;;;;;;23.80;15.52;;;;;;;20.79;77.58;98624.25;5052727;28;20500;-78
2022/08/26 05:45:44;;;;;;;22.33;15.27;;;;;;;20.67;78.52;98626.84;5054320;28;20491;-78
2022/08/26 05:48:09;;;;;;;33.60;17.42;;;;;;;20.48;79.68;98628.25;5044259;28;20039;-78
2022/08/26 05:50:37;;;;;;;26.52;16.00;;;;;;;20.57;78.71;98635.31;5055225;28;20407;-78
2022/08/26 05:53:02;;;;;;;23.98;16.02;;;;;;;20.47;79.83;98623.94;5050880;28;20028;-78
2022/08/26 05:55:28;;;;;;;31.98;16.83;;;;;;;20.41;80.92;98626.03;5051770;28;20097;-78
2022/08/26 05:57:54;;;;;;;40.38;17.73;;;;;;;20.71;78.44;98629.69;5058799;28;20078;-78
2022/08/26 06:00:20;;;;;;;39.85;17.77;;;;;;;20.57;79.61;98624.44;5036765;28;20044;-78
2022/08/26 06:02:46;;;;;;;37.05;17.27;;;;;;;20.71;78.95;98633.22;5054754;28;20036;-79
2022/08/26 06:05:11;;;;;;;18.10;14.15;;;;;;;21.19;71.00;98626.78;5057856;28;20024;-79
2022/08/26 06:10:20;;;;;;;35.92;20.20;;;;;;;20.57;80.47;98623.66;5053922;28;20183;-78
2022/08/26 06:12:46;;;;;;;32.95;17.27;;;;;;;20.57;79.70;98626.34;5053175;28;20464;-79
2022/08/26 06:15:11;;;;;;;23.17;13.38;;;;;;;21.36;70.35;98611.25;5050606;28;20033;-79
2022/08/26 06:17:36;;;;;;;33.50;17.65;;;;;;;21.19;77.01;98627.59;5061385;28;20047;-78
2022/08/26 06:20:02;;;;;;;44.95;21.92;;;;;;;20.93;78.78;98616.75;5053326;28;20043;-78
2022/08/26 06:27:55;;;;;;;38.53;19.00;;;;;;;20.91;80.74;98619.00;5066678;28;20035;-79
2022/08/26 06:30:21;;;;;;;19.33;13.82;;;;;;;21.24;74.03;98613.06;5053658;28;20021;-79
2022/08/26 06:32:46;;;;;;;17.85;12.48;;;;;;;21.69;69.48;98624.25;5067556;28;20032;-79
2022/08/26 06:35:12;;;;;;;39.47;17.13;;;;;;;21.42;78.05;98618.13;5067725;28;20044;-79
2022/08/26 06:37:38;;;;;;;35.33;18.73;;;;;;;20.97;80.39;98627.75;5067941;28;20032;-79
2022/08/26 06:40:04;;;;;;;35.25;15.90;;;;;;;21.19;77.53;98621.38;5064080;28;20062;-79
2022/08/26 06:42:29;;;;;;;22.05;15.55;;;;;;;21.51;72.80;98631.69;5043848;28;20061;-79
2022/08/26 06:44:55;;;;;;;47.47;19.67;;;;;;;21.50;77.70;98628.16;5073277;28;20063;-79
2022/08/26 06:47:20;;;;;;;34.20;18.80;;;;;;;21.07;79.66;98610.38;5059596;28;20047;-79
2022/08/26 06:49:46;;;;;;;40.35;17.65;;;;;;;21.20;78.39;98618.34;5048546;28;20548;-79
2022/08/26 06:52:11;;;;;;;27.45;13.98;;;;;;;21.92;70.93;98617.47;5065688;28;20127;-79
2022/08/26 06:54:41;;;;;;;24.65;13.63;;;;;;;22.49;68.17;98637.59;5044850;28;20029;-79
2022/08/26 06:57:07;;;;;;;26.17;15.68;;;;;;;22.28;70.32;98607.63;5060525;28;20476;-78
2022/08/26 06:59:33;;;;;;;34.08;18.13;;;;;;;22.10;75.41;98624.41;5054957;28;20040;-78
2022/08/26 07:01:58;;;;;;;27.02;15.65;;;;;;;22.46;71.36;98629.25;5067225;28;20079;-78
2022/08/26 07:04:23;;;;;;;30.40;17.77;;;;;;;21.80;77.46;98636.38;5050775;28;20021;-78
2022/08/26 07:06:51;;;;;;;38.05;16.58;;;;;;;22.01;74.11;98629.09;5070164;28;20070;-78
2022/08/26 07:09:16;;;;;;;33.47;18.63;;;;;;;21.77;75.53;98637.81;5050410;28;20028;-78
2022/08/26 07:11:43;;;;;;;29.73;16.75;;;;;;;22.00;76.50;98635.63;5071939;28;20560;-78
2022/08/26 07:14:09;;;;;;;36.90;19.05;;;;;;;22.21;76.25;98637.25;5067195;28;20028;-78
2022/08/26 07:16:40;;;;;;;32.58;17.63;;;;;;;22.49;71.87;98642.22;5045476;28;20033;-78
2022/08/26 07:19:05;;;;;;;35.78;16.77;;;;;;;22.63;73.77;98638.13;5055399;28;20149;-78
2022/08/26 07:21:31;;;;;;;38.92;18.52;;;;;;;22.58;74.84;98629.34;5066353;28;20196;-78
2022/08/26 07:23:56;;;;;;;36.10;18.50;;;;;;;22.23;76.89;98635.03;5040568;28;20030;-78
2022/08/26 07:26:25;;;;;;;44.08;18.77;;;;;;;22.29;76.97;98638.34;5074186;28;20024;-78
2022/08/26 07:28:52;;;;;;;41.42;18.70;;;;;;;22.24;76.88;98641.25;5063253;28;20508;-78
2022/08/26 07:31:20;;;;;;;22.55;14.60;;;;;;;22.48;72.97;98646.06;5074732;28;20032;-78
2022/08/26 07:33:45;;;;;;;36.05;18.85;;;;;;;22.43;76.38;98643.53;5078586;28;20025;-78
2022/08/26 07:36:13;;;;;;;40.55;18.08;;;;;;;22.54;76.25;98655.63;5058540;28;20032;-78
2022/08/26 07:38:40;;;;;;;39.78;17.60;;;;;;;22.52;74.35;98652.44;5064583;28;20510;-78
2022/08/26 07:41:07;;;;;;;28.40;14.38;;;;;;;23.16;70.40;98650.16;5061802;28;20039;-78
2022/08/26 07:43:34;;;;;;;24.88;15.90;;;;;;;23.18;70.88;98643.25;5070056;28;20024;-79
2022/08/26 07:45:59;;;;;;;40.05;16.02;;;;;;;23.00;75.01;98647.25;5067151;28;20054;-78
2022/08/26 07:48:25;;;;;;;33.55;16.55;;;;;;;23.02;74.31;98643.06;5068114;28;20024;-78
2022/08/26 07:50:52;;;;;;;41.03;16.98;;;;;;;22.71;74.88;98637.28;5065559;28;20392;-78
2022/08/26 07:53:19;;;;;;;32.35;16.00;;;;;;;22.88;74.93;98639.84;5066299;28;20025;-78
2022/08/26 07:55:44;;;;;;;37.80;18.02;;;;;;;23.07;74.50;98651.03;5069618;28;20488;-78
2022/08/26 07:58:09;;;;;;;38.65;15.43;;;;;;;23.31;71.61;98644.88;5069424;28;20035;-78
2022/08/26 08:00:35;;;;;;;35.38;17.48;;;;;;;23.31;74.10;98633.97;5059784;28;20032;-78
2022/08/26 08:03:02;;;;;;;40.15;19.08;;;;;;;23.47;73.69;98648.59;5069135;28;20151;-78
2022/08/26 08:05:31;;;;;;;25.58;14.32;;;;;;;23.61;69.79;98640.09;5059879;28;20051;-78
2022/08/26 08:08:03;;;;;;;31.98;15.07;;;;;;;23.71;72.38;98643.19;5069127;28;20028;-78
2022/08/26 08:10:29;;;;;;;34.17;16.33;;;;;;;23.66;73.01;98624.31;5068376;28;20064;-78
2022/08/26 08:12:56;;;;;;;34.60;15.30;;;;;;;23.39;72.95;98644.03;5061501;28;20079;-78
2022/08/26 08:15:26;;;;;;;36.90;17.23;;;;;;;23.47;72.85;98640.41;5070860;28;20035;-78
2022/08/26 08:17:53;;;;;;;31.13;15.32;;;;;;;23.42;71.99;98623.47;5079621;28;20419;-78
2022/08/26 08:20:20;;;;;;;37.90;17.15;;;;;;;23.51;73.82;98649.50;5069209;28;20118;-79
2022/08/26 08:22:46;;;;;;;41.42;17.48;;;;;;;23.57;71.99;98620.88;5066445;28;20059;-78
2022/08/26 08:25:12;;;;;;;30.63;16.27;;;;;;;23.94;72.35;98635.34;5066195;28;20090;-78
2022/08/26 08:27:39;;;;;;;27.98;13.48;;;;;;;24.15;68.60;98621.63;5063103;28;20120;-78
2022/08/26 08:30:06;;;;;;;26.10;14.38;;;;;;;24.50;67.24;98636.34;5074773;28;20111;-78
2022/08/26 08:32:32;;;;;;;39.47;17.27;;;;;;;24.32;70.77;98635.00;5049214;28;20071;-78
2022/08/26 08:34:58;;;;;;;34.17;15.18;;;;;;;24.65;66.74;98635.63;5070790;28;20047;-78
2022/08/26 08:37:24;;;;;;;28.20;13.65;;;;;;;24.75;66.63;98631.66;5066743;28;20555;-78
2022/08/26 08:39:50;;;;;;;36.03;15.18;;;;;;;24.49;69.81;98621.09;5043136;28;20037;-78
2022/08/26 08:42:34;;;;;;;24.55;14.77;;;;;;;24.47;69.16;98635.09;5070655;28;20023;-78
2022/08/26 08:45:08;;;;;;;32.50;15.13;;;;;;;24.52;69.31;98634.88;5086017;28;20513;-78
2022/08/26 08:47:55;;;;;;;34.33;16.48;;;;;;;24.52;68.71;98632.13;5069716;28;20054;-78
2022/08/26 08:50:27;;;;;;;44.70;16.63;;;;;;;24.41;69.81;98635.69;5058060;28;20032;-78
2022/08/26 08:53:11;;;;;;;29.70;14.77;;;;;;;24.37;69.00;98624.66;5072033;28;20043;-78
2022/08/26 08:56:02;;;;;;;35.22;16.52;;;;;;;24.46;68.91;98632.72;5079169;28;20024;-78
2022/08/26 08:58:59;;;;;;;38.40;15.55;;;;;;;24.57;68.37;98626.41;5081465;28;20530;-78
2022/08/26 09:01:33;;;;;;;44.53;15.68;;;;;;;24.56;68.90;98624.03;5065622;28;20107;-78
2022/08/26 09:04:08;;;;;;;23.15;13.60;;;;;;;24.68;68.21;98615.03;5076074;28;20494;-78
2022/08/26 09:06:33;;;;;;;36.83;14.98;;;;;;;24.68;68.61;98618.56;5070373;28;20021;-78
2022/08/26 09:09:01;;;;;;;18.70;12.82;;;;;;;24.76;68.16;98612.19;5052859;28;20035;-78
2022/08/26 09:11:28;;;;;;;31.15;13.38;;;;;;;24.81;67.37;98601.03;5063630;28;20051;-78
2022/08/26 09:13:54;;;;;;;29.33;13.35;;;;;;;24.95;66.80;98615.06;5079967;28;20056;-78
2022/08/26 09:16:50;;;;;;;37.47;14.70;;;;;;;25.12;66.19;98614.75;5075383;28;20117;-78
2022/08/26 09:19:29;;;;;;;27.40;13.32;;;;;;;25.13;65.52;98597.22;5075048;28;20052;-78
2022/08/26 09:21:57;;;;;;;22.42;14.88;;;;;;;25.10;66.47;98608.84;5062710;28;20094;-78
2022/08/26 09:24:23;;;;;;;30.90;15.70;;;;;;;25.12;66.73;98608.47;5066319;28;20028;-78
2022/08/26 09:26:48;;;;;;;26.98;14.07;;;;;;;25.21;66.17;98596.25;5067923;28;20035;-78
2022/08/26 09:29:22;;;;;;;25.25;12.75;;;;;;;25.59;66.12;98612.13;5063216;28;20036;-78
2022/08/26 09:31:48;;;;;;;26.90;13.55;;;;;;;25.81;65.51;98600.56;5084036;28;20478;-78
2022/08/26 09:34:26;;;;;;;29.92;13.30;;;;;;;25.65;64.36;98604.44;5086025;28;20028;-78
2022/08/26 09:36:56;;;;;;;36.42;15.23;;;;;;;25.54;65.61;98601.44;5071110;28;20055;-78
2022/08/26 09:39:37;;;;;;;29.85;14.38;;;;;;;25.63;64.62;98590.31;5075011;28;20476;-78
2022/08/26 09:42:19;;;;;;;25.73;13.38;;;;;;;25.62;65.04;98591.47;5072805;28;20028;-78
2022/08/26 09:45:04;;;;;;;35.83;15.57;;;;;;;25.69;65.36;98586.16;5072655;28;20070;-78
2022/08/26 09:47:38;;;;;;;35.95;15.82;;;;;;;25.70;65.63;98587.75;5067660;28;20115;-78
2022/08/26 09:50:22;;;;;;;32.28;13.68;;;;;;;26.09;63.78;98589.50;5074044;28;20399;-78
2022/08/26 09:53:07;;;;;;;20.23;11.45;;;;;;;26.44;62.80;98582.09;5085076;28;20024;-78
2022/08/26 09:55:34;;;;;;;31.00;14.35;;;;;;;25.84;64.33;98582.66;5071801;28;20020;-78
2022/08/26 09:58:00;;;;;;;37.83;14.52;;;;;;;25.94;64.21;98584.84;5074897;28;20058;-78
2022/08/26 10:00:30;;;;;;;32.20;14.75;;;;;;;26.23;63.57;98575.34;5072265;28;20055;-78
2022/08/26 10:02:58;;;;;;;38.38;14.65;;;;;;;26.11;63.48;98551.63;5070021;28;20036;-78
2022/08/26 10:05:44;;;;;;;32.78;13.30;;;;;;;26.22;62.96;98574.56;5052881;28;20031;-78
2022/08/26 10:08:22;;;;;;;30.33;12.73;;;;;;;26.26;62.62;98564.47;5071703;28;20043;-78
2022/08/26 10:10:49;;;;;;;32.03;13.98;;;;;;;26.09;63.03;98544.94;5073873;28;20052;-78
2022/08/26 10:13:21;;;;;;;29.05;13.25;;;;;;;26.55;61.73;98547.50;5071545;28;20020;-78
2022/08/26 10:16:00;;;;;;;35.40;13.70;;;;;;;26.60;61.79;98543.69;5084736;28;20112;-78
2022/08/26 10:18:38;;;;;;;32.58;14.13;;;;;;;26.74;61.96;98533.81;5079221;28;20036;-78
2022/08/26 10:21:05;;;;;;;36.42;14.65;;;;;;;26.86;62.32;98529.34;5064927;28;20390;-78
2022/08/26 10:23:37;;;;;;;40.63;15.07;;;;;;;26.49;62.53;98526.25;5079351;28;20024;-78
2022/08/26 10:26:21;;;;;;;37.08;15.45;;;;;;;26.83;62.63;98530.06;5077191;28;20491;-78
2022/08/26 10:28:55;;;;;;;28.00;14.25;;;;;;;26.92;61.17;98525.16;5074480;28;20051;-78
2022/08/26 10:31:26;;;;;;;30.92;13.02;;;;;;;26.64;60.51;98498.00;5069031;28;20414;-78
2022/08/26 10:33:53;;;;;;;22.33;12.57;;;;;;;27.32;60.19;98504.34;5072671;28;20032;-78
2022/08/26 10:39:17;;;;;;;21.38;13.43;;;;;;;27.33;58.46;98502.38;5064946;28;20044;-78
2022/08/26 10:41:48;;;;;;;28.05;12.63;;;;;;;27.48;58.44;98501.47;5061961;28;20021;-78
2022/08/26 10:44:17;;;;;;;24.33;12.25;;;;;;;28.07;56.74;98515.31;5061222;28;20055;-78
2022/08/26 10:46:53;;;;;;;29.35;12.43;;;;;;;27.58;57.91;98497.31;5065666;28;20032;-78
2022/08/26 10:49:18;;;;;;;24.50;12.15;;;;;;;28.20;57.19;98500.19;5056788;28;20029;-78
2022/08/26 10:51:54;;;;;;;25.52;11.27;;;;;;;28.27;57.02;98490.47;5064177;28;20032;-78
2022/08/26 10:54:35;;;;;;;24.30;13.05;;;;;;;27.93;56.10;98500.59;5060095;28;20067;-78
2022/08/26 10:57:12;;;;;;;22.48;12.10;;;;;;;28.09;56.35;98498.47;5063558;28;20028;-78
2022/08/26 10:59:46;;;;;;;24.92;11.85;;;;;;;28.32;56.77;98501.94;5066327;28;20032;-78
2022/08/26 11:02:21;;;;;;;17.90;11.90;;;;;;;28.58;54.35;98504.63;5057079;28;20028;-78
2022/08/26 11:04:56;;;;;;;22.33;12.32;;;;;;;28.79;53.94;98490.31;5060125;28;20054;-78
2022/08/26 11:07:36;;;;;;;25.05;11.52;;;;;;;28.88;53.85;98483.34;5056708;28;20021;-78
2022/08/26 11:10:29;;;;;;;21.20;11.65;;;;;;;29.05;52.99;98481.16;5064706;28;20021;-78
2022/08/26 11:13:05;;;;;;;23.45;11.95;;;;;;;28.40;54.57;98470.63;5061634;28;20081;-78
2022/08/26 11:15:31;;;;;;;23.33;11.93;;;;;;;28.23;55.42;98479.47;5062945;28;20035;-78
2022/08/26 11:17:59;;;;;;;30.45;12.05;;;;;;;28.02;56.37;98482.69;5059128;28;20020;-78
2022/08/26 11:20:51;;;;;;;23.35;12.45;;;;;;;27.67;56.18;98481.41;5062956;28;20033;-78
2022/08/26 11:23:19;;;;;;;27.95;12.63;;;;;;;28.14;55.49;98477.00;5071942;28;20060;-78
2022/08/26 11:26:00;;;;;;;26.48;11.32;;;;;;;28.47;53.77;98465.22;5065933;28;20044;-78
2022/08/26 11:28:36;;;;;;;22.02;11.30;;;;;;;28.45;53.70;98464.81;5062847;28;20696;-78
2022/08/26 11:31:07;;;;;;;25.13;11.73;;;;;;;28.53;53.17;98454.69;5061633;28;20127;-78
2022/08/26 11:33:49;;;;;;;21.63;10.65;;;;;;;28.13;52.08;98466.41;5049580;28;20029;-78
2022/08/26 11:36:32;;;;;;;16.23;10.68;;;;;;;28.68;52.07;98456.47;5066300;28;20031;-78